Time;durP1;ratioP1;P1;durP2;ratioP2;P2;SDS_P1;SDS_P2;PMS_P1;PMS_P2;Temp;Humidity;BMP_temperature;BMP_pressure;BME280_temperature;BME280_humidity;BME280_pressure;Samples;Min_cycle;Max_cycle;Signal;HPM_P1;HPM_P2
2022/06/04 00:00:52;;;;;;;17.17;9.78;;;;;;;18.16;79.69;101073.83;1872980;76;21065;-62
2022/06/04 00:03:21;;;;;;;17.07;8.10;;;;;;;18.13;79.57;101074.41;1872734;76;21017;-62
2022/06/04 00:05:55;;;;;;;14.18;7.67;;;;;;;18.11;79.60;101072.33;1872899;76;21083;-62
2022/06/04 00:08:25;;;;;;;14.60;8.70;;;;;;;18.07;79.79;101073.46;1872988;76;21108;-62
2022/06/04 00:16:30;;;;;;;16.52;9.50;;;;;;;17.93;80.38;101059.73;1880911;74;21061;-62
2022/06/04 00:19:00;;;;;;;18.62;8.10;;;;;;;17.90;80.59;101051.92;1889236;76;21049;-62
2022/06/04 00:21:28;;;;;;;20.40;7.78;;;;;;;17.90;80.51;101052.41;1893530;76;21107;-62
2022/06/04 00:23:57;;;;;;;12.80;7.12;;;;;;;17.86;80.56;101045.09;1893388;76;21025;-63
2022/06/04 00:26:25;;;;;;;16.27;7.47;;;;;;;17.86;80.64;101052.23;1893421;76;21153;-62
2022/06/04 00:28:56;;;;;;;26.93;14.28;;;;;;;17.84;80.42;101050.97;1892800;75;21468;-62
2022/06/04 00:31:25;;;;;;;19.12;10.50;;;;;;;17.85;80.41;101047.84;1893420;76;21110;-62
2022/06/04 00:33:54;;;;;;;18.30;7.03;;;;;;;17.85;80.28;101042.52;1893448;76;21017;-62
2022/06/04 00:36:22;;;;;;;12.82;7.03;;;;;;;17.85;80.16;101038.52;1893574;76;21045;-62
2022/06/04 00:38:52;;;;;;;20.40;6.53;;;;;;;17.84;80.12;101038.13;1893396;76;21116;-62
2022/06/04 00:41:38;;;;;;;19.50;8.35;;;;;;;17.80;80.31;101034.81;1893445;76;21519;-62
2022/06/04 00:44:13;;;;;;;20.30;11.00;;;;;;;17.79;80.37;101037.56;1893540;76;21114;-62
2022/06/04 00:46:47;;;;;;;20.77;8.25;;;;;;;17.74;80.41;101037.39;1893415;76;21013;-62
2022/06/04 00:49:18;;;;;;;15.98;7.25;;;;;;;17.69;80.58;101043.97;1893432;76;21559;-62
2022/06/04 00:51:49;;;;;;;14.58;7.15;;;;;;;17.59;80.81;101047.67;1893438;76;21107;-62
2022/06/04 00:54:19;;;;;;;16.73;8.05;;;;;;;17.50;81.39;101041.60;1893433;76;21484;-62
2022/06/04 00:56:51;;;;;;;33.92;14.55;;;;;;;17.47;81.37;101041.82;1893412;76;21495;-62
2022/06/04 00:59:42;;;;;;;23.77;11.53;;;;;;;17.45;81.53;101038.41;1892693;75;21544;-62
2022/06/04 01:02:20;;;;;;;17.52;9.88;;;;;;;17.43;81.44;101036.28;1879616;76;21539;-61
2022/06/04 01:04:51;;;;;;;19.35;9.58;;;;;;;17.40;81.29;101031.17;1893489;75;21044;-61
2022/06/04 01:07:28;;;;;;;21.45;8.90;;;;;;;17.39;81.13;101028.12;1893658;75;21041;-61
2022/06/04 01:10:07;;;;;;;19.80;9.95;;;;;;;17.36;81.08;101028.70;1893361;76;21049;-62
2022/06/04 01:12:58;;;;;;;28.90;13.00;;;;;;;17.35;81.11;101032.78;1893369;76;21499;-59
2022/06/04 01:15:57;;;;;;;14.93;8.60;;;;;;;17.32;81.11;101038.31;1905257;74;21113;-58
2022/06/04 01:18:30;;;;;;;16.40;8.55;;;;;;;17.26;81.25;101039.53;1906588;74;21653;-58
2022/06/04 01:21:02;;;;;;;21.02;9.10;;;;;;;17.20;81.32;101037.26;1925061;74;21002;-58
2022/06/04 01:23:40;;;;;;;27.62;9.83;;;;;;;17.18;81.46;101041.83;1915886;74;21132;-59
2022/06/04 01:26:43;;;;;;;19.12;8.40;;;;;;;17.23;81.74;101049.05;1875139;76;21107;-58
2022/06/04 01:29:18;;;;;;;18.12;6.95;;;;;;;17.27;81.68;101051.89;1893544;74;21495;-58
2022/06/04 01:31:52;;;;;;;17.65;8.05;;;;;;;17.27;81.48;101049.23;1905190;74;21585;-59
2022/06/04 01:34:24;;;;;;;14.80;6.55;;;;;;;17.25;81.29;101051.14;1926761;74;21090;-60
2022/06/04 01:37:04;;;;;;;14.38;5.47;;;;;;;17.24;81.40;101048.09;1926718;74;21038;-60
2022/06/04 01:42:29;;;;;;;16.37;7.72;;;;;;;17.19;81.58;101059.52;1926755;74;21006;-61
2022/06/04 01:45:04;;;;;;;15.48;6.80;;;;;;;17.18;81.82;101059.12;1925158;74;21026;-60
2022/06/04 01:47:31;;;;;;;;;;;;;;;17.17;81.64;101058.73;1928574;74;21041;-61
2022/06/04 01:50:04;;;;;;;12.00;6.58;;;;;;;17.14;81.40;101059.78;1926311;74;20167;-60
2022/06/04 01:52:36;;;;;;;20.82;7.83;;;;;;;17.11;81.34;101073.27;1926773;74;21045;-60
2022/06/04 01:55:13;;;;;;;15.53;7.08;;;;;;;17.10;81.40;101076.05;1926706;74;21119;-60
2022/06/04 01:57:45;;;;;;;24.05;7.28;;;;;;;17.07;81.60;101073.56;1926685;74;21649;-61
2022/06/04 02:00:17;;;;;;;13.60;7.28;;;;;;;17.06;81.81;101071.84;1926611;74;21085;-62
2022/06/04 02:02:51;;;;;;;21.75;7.53;;;;;;;17.08;81.82;101077.91;1926712;74;21053;-62
2022/06/04 02:05:23;;;;;;;13.03;6.67;;;;;;;17.08;81.76;101077.47;1926441;74;21093;-60
2022/06/04 02:07:54;;;;;;;17.05;7.10;;;;;;;17.08;81.81;101074.80;1925984;74;21158;-61
2022/06/04 02:10:31;;;;;;;15.93;6.53;;;;;;;17.09;81.76;101084.95;1926740;74;21034;-62
2022/06/04 02:13:02;;;;;;;14.78;6.87;;;;;;;17.12;81.69;101092.77;1898902;74;21037;-62
2022/06/04 02:15:34;;;;;;;16.97;6.58;;;;;;;17.15;81.56;101093.44;1926714;74;21824;-62
2022/06/04 02:18:05;;;;;;;16.77;7.33;;;;;;;17.17;81.44;101097.30;1913863;74;21086;-61
2022/06/04 02:20:33;;;;;;;13.62;6.97;;;;;;;17.15;81.71;101096.55;1905153;74;21034;-60
2022/06/04 02:23:02;;;;;;;14.43;7.08;;;;;;;17.19;81.69;101088.78;1904930;75;21159;-60
2022/06/04 02:25:32;;;;;;;15.63;6.90;;;;;;;17.20;81.69;101086.48;1905145;75;21022;-60
2022/06/04 02:28:01;;;;;;;17.75;6.75;;;;;;;17.20;81.73;101086.48;1905098;75;21002;-60
2022/06/04 02:30:41;;;;;;;21.37;6.90;;;;;;;17.25;81.63;101085.73;1905082;75;21481;-60
2022/06/04 02:33:13;;;;;;;19.45;7.08;;;;;;;17.34;81.46;101090.97;1904232;74;21038;-59
2022/06/04 02:36:01;;;;;;;16.42;6.05;;;;;;;17.42;81.21;101086.50;1904617;75;21610;-58
2022/06/04 02:38:36;;;;;;;11.45;6.03;;;;;;;17.48;81.09;101078.97;1905014;75;21031;-59
2022/06/04 02:41:07;;;;;;;20.20;5.80;;;;;;;17.57;80.90;101076.21;1897620;75;21030;-59
2022/06/04 02:43:45;;;;;;;14.65;6.92;;;;;;;17.68;80.73;101077.72;1905005;75;21100;-59
2022/06/04 02:46:31;;;;;;;14.58;6.35;;;;;;;17.72;80.61;101073.92;1905202;75;21546;-59
2022/06/04 02:49:15;;;;;;;12.33;6.30;;;;;;;17.78;80.50;101072.68;1905120;75;21042;-58
2022/06/04 02:51:44;;;;;;;;;;;;;;;17.77;80.49;101077.61;1907933;75;21031;-57
2022/06/04 02:54:16;;;;;;;12.65;5.37;;;;;;;17.75;80.44;101076.86;1904985;75;20111;-57
2022/06/04 02:56:46;;;;;;;11.78;5.53;;;;;;;17.78;80.33;101083.78;1902597;75;21038;-57
2022/06/04 02:59:18;;;;;;;15.30;5.55;;;;;;;17.81;80.33;101082.27;1905135;75;21014;-61
2022/06/04 03:01:49;;;;;;;11.97;6.03;;;;;;;17.88;80.34;101073.81;1905153;75;21038;-61
2022/06/04 03:04:18;;;;;;;13.80;5.97;;;;;;;17.98;80.33;101072.73;1905120;75;21477;-61
2022/06/04 03:06:47;;;;;;;12.68;5.37;;;;;;;18.13;80.32;101076.23;1904987;75;21540;-61
2022/06/04 03:09:18;;;;;;;11.48;5.65;;;;;;;18.27;80.11;101068.64;1905068;75;21036;-61
2022/06/04 03:11:49;;;;;;;17.67;5.58;;;;;;;18.37;79.90;101065.77;1905024;75;21023;-60
2022/06/04 03:14:19;;;;;;;9.95;5.70;;;;;;;18.48;79.62;101055.23;1905172;75;21022;-60
2022/06/04 03:16:49;;;;;;;12.00;5.35;;;;;;;18.57;79.31;101058.22;1905062;75;21453;-65
2022/06/04 03:19:18;;;;;;;11.20;4.80;;;;;;;18.64;79.07;101062.18;1918811;74;21066;-59
2022/06/04 03:21:47;;;;;;;11.83;5.70;;;;;;;18.69;78.76;101066.23;1920666;75;21457;-60
2022/06/04 03:24:17;;;;;;;12.07;6.22;;;;;;;18.73;78.47;101068.22;1920595;75;21107;-60
2022/06/04 03:26:46;;;;;;;11.03;4.90;;;;;;;18.79;78.26;101070.45;1920608;73;21100;-63
2022/06/04 03:29:14;;;;;;;16.50;5.28;;;;;;;18.95;78.27;101057.45;1922199;74;21018;-61
2022/06/04 03:31:43;;;;;;;9.88;4.35;;;;;;;19.12;78.29;101064.28;1926659;74;21099;-61
2022/06/04 03:34:12;;;;;;;10.18;4.60;;;;;;;19.30;78.35;101064.32;1926664;74;21093;-59
2022/06/04 03:36:41;;;;;;;9.83;4.83;;;;;;;19.47;78.20;101062.62;1926789;74;21543;-62
2022/06/04 03:39:10;;;;;;;8.35;4.30;;;;;;;19.61;77.95;101064.32;1926608;74;21468;-61
2022/06/04 03:41:40;;;;;;;12.98;4.62;;;;;;;19.64;77.38;101062.78;1926638;74;21554;-62
2022/06/04 03:44:09;;;;;;;8.15;3.87;;;;;;;19.66;77.11;101067.52;1926614;74;21572;-63
2022/06/04 03:46:37;;;;;;;11.20;4.90;;;;;;;19.72;76.63;101062.70;1926703;74;21010;-63
2022/06/04 03:49:06;;;;;;;10.03;4.97;;;;;;;19.63;76.25;101070.41;1926533;74;21029;-62
2022/06/04 03:51:37;;;;;;;12.82;4.60;;;;;;;19.60;76.10;101071.95;1926733;74;21049;-62
2022/06/04 03:54:05;;;;;;;11.38;4.40;;;;;;;19.59;75.91;101064.07;1926586;74;21119;-61
2022/06/04 03:56:34;;;;;;;13.10;4.30;;;;;;;19.59;75.77;101063.58;1926596;74;21010;-61
2022/06/04 03:59:04;;;;;;;8.33;4.03;;;;;;;19.64;75.65;101069.45;1926704;74;21085;-62
2022/06/04 04:01:33;;;;;;;9.28;4.12;;;;;;;19.67;75.52;101065.20;1926629;74;21527;-62
2022/06/04 04:04:02;;;;;;;8.10;4.40;;;;;;;19.73;75.54;101069.77;1926721;74;21180;-62
2022/06/04 04:06:33;;;;;;;12.40;4.67;;;;;;;19.79;75.51;101080.00;1926597;74;21436;-62
2022/06/04 04:09:04;;;;;;;10.28;5.00;;;;;;;19.86;75.27;101088.83;1926623;74;21103;-61
2022/06/04 04:11:33;;;;;;;10.03;4.37;;;;;;;20.02;75.12;101092.55;1926545;74;21624;-63
2022/06/04 04:14:01;;;;;;;14.70;4.78;;;;;;;20.17;74.85;101089.72;1926626;74;21034;-63
2022/06/04 04:16:30;;;;;;;10.38;4.15;;;;;;;20.42;74.61;101089.59;1926662;74;21033;-63
2022/06/04 04:18:58;;;;;;;10.38;4.12;;;;;;;20.72;74.52;101086.94;1926524;74;21143;-62
2022/06/04 04:21:27;;;;;;;6.70;3.95;;;;;;;20.99;74.38;101089.31;1926730;74;21091;-63
2022/06/04 04:23:56;;;;;;;16.90;3.95;;;;;;;21.23;74.07;101099.55;1926469;74;21103;-63
2022/06/04 04:26:28;;;;;;;11.73;3.77;;;;;;;21.37;73.38;101105.53;1926717;74;21050;-63
2022/06/04 04:28:56;;;;;;;32.42;5.53;;;;;;;21.45;72.97;101102.77;1926683;74;21526;-62
2022/06/04 04:31:26;;;;;;;14.75;3.92;;;;;;;21.64;73.04;101099.00;1926676;74;21095;-62
2022/06/04 04:33:55;;;;;;;9.10;4.30;;;;;;;21.90;73.01;101103.59;1926669;74;21516;-62
2022/06/04 04:36:27;;;;;;;11.18;3.95;;;;;;;22.17;72.58;101106.34;1926529;74;21010;-64
2022/06/04 04:38:53;;;;;;;9.58;4.90;;;;;;;22.30;71.89;101106.22;1926469;74;21111;-58
2022/06/04 04:41:23;;;;;;;17.30;5.97;;;;;;;22.46;71.72;101101.75;1926695;74;21111;-65
2022/06/04 04:43:52;;;;;;;14.68;5.30;;;;;;;22.74;71.37;101096.24;1926635;74;21109;-63
2022/06/04 04:46:22;;;;;;;8.85;3.92;;;;;;;22.99;70.87;101095.01;1926628;74;21504;-63
2022/06/04 04:48:51;;;;;;;14.83;3.45;;;;;;;23.22;70.16;101094.87;1926569;74;21526;-66
2022/06/04 04:51:23;;;;;;;6.17;3.50;;;;;;;23.43;69.73;101090.32;1926625;74;21038;-64
2022/06/04 04:53:54;;;;;;;7.50;3.30;;;;;;;23.72;69.43;101097.66;1926610;74;21025;-63
2022/06/04 04:56:24;;;;;;;9.73;3.80;;;;;;;24.05;69.06;101107.72;1926753;74;21096;-62
2022/06/04 04:58:53;;;;;;;7.62;3.20;;;;;;;24.23;67.71;101125.38;1926708;74;21081;-62
2022/06/04 05:01:28;;;;;;;8.55;3.47;;;;;;;24.37;67.29;101130.87;1926567;74;21029;-63
2022/06/04 05:03:57;;;;;;;13.50;3.65;;;;;;;24.44;65.87;101126.13;1926736;74;21115;-62
2022/06/04 05:06:26;;;;;;;7.53;3.20;;;;;;;24.50;65.95;101122.02;1926758;74;21480;-61
2022/06/04 05:08:55;;;;;;;6.25;3.08;;;;;;;24.76;65.46;101114.73;1926973;74;21049;-61
2022/06/04 05:11:29;;;;;;;7.47;3.20;;;;;;;24.96;64.87;101111.02;1926795;74;21042;-61
2022/06/04 05:13:59;;;;;;;8.43;3.17;;;;;;;25.19;64.33;101110.17;1926637;74;21006;-62
2022/06/04 05:16:30;;;;;;;9.28;2.87;;;;;;;25.36;63.02;101105.92;1926726;74;21058;-61
2022/06/04 05:19:01;;;;;;;8.58;3.15;;;;;;;25.59;62.74;101098.28;1926726;74;20990;-63
2022/06/04 05:21:44;;;;;;;9.63;3.33;;;;;;;26.00;62.99;101090.69;1926760;74;21033;-60
2022/06/04 05:24:18;;;;;;;8.80;2.83;;;;;;;26.42;63.01;101091.95;1926952;74;20998;-60
2022/06/04 05:26:48;;;;;;;9.13;3.12;;;;;;;26.77;61.70;101092.95;1926741;74;21436;-60
2022/06/04 05:29:17;;;;;;;9.08;3.37;;;;;;;27.06;61.13;101094.01;1926870;74;21033;-60
2022/06/04 05:31:46;;;;;;;10.25;3.22;;;;;;;27.27;60.24;101096.34;1926746;74;21034;-60
2022/06/04 05:34:17;;;;;;;10.40;3.58;;;;;;;27.29;58.34;101095.68;1926703;74;21037;-60
2022/06/04 05:36:47;;;;;;;16.62;3.30;;;;;;;27.30;58.06;101090.63;1926646;74;21566;-60
2022/06/04 05:39:16;;;;;;;10.95;3.92;;;;;;;27.58;58.31;101076.89;1926737;74;21566;-60
2022/06/04 05:41:44;;;;;;;11.57;2.87;;;;;;;27.96;58.12;101071.98;1926822;74;21002;-62
2022/06/04 05:44:14;;;;;;;8.55;2.98;;;;;;;28.36;57.62;101062.20;1926723;74;21069;-61
2022/06/04 05:46:44;;;;;;;14.40;2.80;;;;;;;28.75;57.06;101060.17;1926763;74;21465;-61
2022/06/04 05:49:13;;;;;;;10.45;2.90;;;;;;;29.04;56.84;101062.33;1926667;74;21076;-62
2022/06/04 05:51:44;;;;;;;5.42;2.67;;;;;;;29.38;56.12;101057.67;1926863;74;21480;-61
2022/06/04 05:54:13;;;;;;;9.83;3.05;;;;;;;29.70;55.56;101062.11;1926774;74;21091;-61
2022/06/04 05:56:45;;;;;;;8.63;3.25;;;;;;;29.99;54.85;101056.04;1926727;74;21131;-61
2022/06/04 05:59:16;;;;;;;11.97;2.70;;;;;;;29.93;52.88;101054.02;1926853;74;21073;-61
2022/06/04 06:01:46;;;;;;;11.22;2.58;;;;;;;30.05;52.95;101060.42;1926562;74;21009;-63
2022/06/04 06:04:16;;;;;;;9.68;2.12;;;;;;;30.29;52.81;101064.30;1926681;74;21508;-63
2022/06/04 06:06:47;;;;;;;7.78;2.77;;;;;;;30.55;52.32;101063.11;1926685;74;21010;-63
2022/06/04 06:09:18;;;;;;;8.43;2.58;;;;;;;30.76;51.85;101059.15;1926706;74;21041;-60
2022/06/04 06:11:48;;;;;;;8.45;1.85;;;;;;;30.91;50.99;101058.36;1926721;74;21010;-60
2022/06/04 06:14:17;;;;;;;6.42;1.65;;;;;;;31.09;50.45;101058.00;1926598;74;21099;-60
2022/06/04 06:16:49;;;;;;;6.40;2.35;;;;;;;31.23;50.14;101053.61;1926720;74;21468;-64
2022/06/04 06:19:20;;;;;;;6.80;2.05;;;;;;;31.45;49.33;101056.73;1926677;74;21037;-64
2022/06/04 06:21:51;;;;;;;8.18;2.30;;;;;;;31.59;48.50;101046.03;1924520;74;21081;-65
2022/06/04 06:24:21;;;;;;;6.25;2.15;;;;;;;31.74;48.17;101042.25;1926833;74;21549;-68
2022/06/04 06:26:53;;;;;;;4.78;1.70;;;;;;;31.93;48.04;101044.02;1926701;74;21087;-69
2022/06/04 06:29:24;;;;;;;3.67;1.63;;;;;;;32.13;47.83;101045.09;1926899;74;21014;-69
2022/06/04 06:31:53;;;;;;;4.92;1.50;;;;;;;32.12;46.44;101050.20;1926811;74;21264;-65
2022/06/04 06:34:23;;;;;;;7.55;2.37;;;;;;;32.26;46.31;101054.41;1926710;74;21479;-66
2022/06/04 06:36:52;;;;;;;5.65;1.70;;;;;;;32.46;45.85;101050.50;1926456;74;21101;-62
2022/06/04 06:39:21;;;;;;;6.05;1.72;;;;;;;32.49;44.64;101047.39;1926659;74;21037;-61
2022/06/04 06:41:54;;;;;;;10.40;2.92;;;;;;;32.66;44.39;101046.08;1926775;74;21026;-72
2022/06/04 06:44:22;;;;;;;9.83;2.12;;;;;;;32.91;44.25;101038.81;1925653;74;21038;-63
2022/06/04 06:46:50;;;;;;;6.70;1.87;;;;;;;33.15;44.18;101049.80;1926745;74;21001;-65
2022/06/04 06:49:22;;;;;;;5.92;1.75;;;;;;;33.42;43.66;101047.18;1926645;74;21111;-65
2022/06/04 06:51:56;;;;;;;8.20;2.22;;;;;;;33.45;42.54;101051.71;1926946;74;21025;-64
2022/06/04 06:54:31;;;;;;;3.98;1.72;;;;;;;33.26;41.67;101031.48;1924662;74;21545;-64
2022/06/04 06:57:04;;;;;;;9.70;2.05;;;;;;;33.26;41.67;101031.48;1926697;74;21492;-61
2022/06/04 06:59:33;;;;;;;2.30;1.37;;;;;;;33.40;41.13;101031.03;1926703;74;21006;-60
2022/06/04 07:02:03;;;;;;;4.62;2.08;;;;;;;33.59;40.47;101035.41;1926693;74;21115;-61
2022/06/04 07:04:31;;;;;;;2.75;1.40;;;;;;;33.75;40.41;101038.30;1926629;74;21472;-61
2022/06/04 07:07:02;;;;;;;8.50;1.50;;;;;;;33.75;40.41;101038.30;1926670;74;21171;-61
2022/06/04 07:09:34;;;;;;;9.75;1.70;;;;;;;33.63;39.88;101026.58;1926928;73;21006;-63
2022/06/04 07:12:08;;;;;;;5.37;1.50;;;;;;;33.79;40.11;101021.31;1945164;73;21006;-62
2022/06/04 07:14:37;;;;;;;6.08;1.50;;;;;;;34.03;39.91;101024.48;1956006;73;21468;-64
2022/06/04 07:17:07;;;;;;;8.88;1.50;;;;;;;34.22;39.64;101015.50;1960684;73;21097;-63
2022/06/04 07:19:36;;;;;;;3.70;1.30;;;;;;;34.37;39.20;101017.19;1960838;73;21468;-62
2022/06/04 07:22:05;;;;;;;5.47;1.57;;;;;;;34.47;38.84;101010.76;1973067;72;21186;-64
2022/06/04 07:24:33;;;;;;;4.00;1.42;;;;;;;34.20;37.90;101002.58;1967792;73;21473;-62
2022/06/04 07:27:02;;;;;;;12.45;1.98;;;;;;;34.20;37.90;101002.58;1967708;73;21597;-63
2022/06/04 07:29:31;;;;;;;7.60;2.52;;;;;;;34.31;38.13;101004.38;1967621;73;21041;-63
2022/06/04 07:31:59;;;;;;;8.53;1.65;;;;;;;34.59;38.10;101012.34;1967735;73;21022;-62
2022/06/04 07:34:28;;;;;;;4.55;1.30;;;;;;;34.55;37.14;101005.09;1967850;73;21026;-63
2022/06/04 07:36:57;;;;;;;6.62;1.77;;;;;;;34.86;37.47;101002.73;1967829;73;21087;-63
2022/06/04 07:39:26;;;;;;;8.80;1.50;;;;;;;35.02;37.10;101001.44;1967737;73;21026;-67
2022/06/04 07:41:55;;;;;;;14.75;1.47;;;;;;;34.94;36.80;100999.25;1967771;73;21479;-63
2022/06/04 07:44:26;;;;;;;8.13;1.50;;;;;;;35.16;36.83;100998.97;1967708;73;21619;-63
2022/06/04 07:46:56;;;;;;;8.40;1.40;;;;;;;35.18;36.46;100990.02;1967749;73;21080;-64
2022/06/04 07:49:25;;;;;;;7.92;1.60;;;;;;;35.36;36.32;100991.54;1967724;73;21146;-63
2022/06/04 07:51:54;;;;;;;3.47;1.50;;;;;;;35.14;35.30;100987.41;1937741;73;21637;-66
2022/06/04 07:54:23;;;;;;;3.65;1.30;;;;;;;35.11;35.53;100994.13;1931935;74;21028;-66
2022/06/04 07:56:54;;;;;;;2.90;1.50;;;;;;;35.07;35.39;100995.63;1925895;74;21103;-65
2022/06/04 07:59:23;;;;;;;3.52;1.30;;;;;;;35.05;35.14;100994.17;1899954;75;21531;-66
2022/06/04 08:01:52;;;;;;;3.98;1.20;;;;;;;35.11;35.25;100987.30;1899779;75;21456;-64
2022/06/04 08:04:21;;;;;;;5.60;1.62;;;;;;;35.13;35.07;100974.77;1898657;75;21009;-66
2022/06/04 08:06:50;;;;;;;3.85;1.37;;;;;;;35.27;35.11;100972.86;1898354;75;21112;-64
2022/06/04 08:09:18;;;;;;;2.90;1.50;;;;;;;35.46;35.15;100973.80;1899040;75;21096;-63
2022/06/04 08:11:47;;;;;;;4.83;1.52;;;;;;;35.52;35.23;100977.02;1899980;75;21033;-64
2022/06/04 08:14:22;;;;;;;6.58;1.45;;;;;;;35.72;35.22;100972.83;1900065;75;21045;-68
2022/06/04 08:16:57;;;;;;;3.58;1.30;;;;;;;35.60;34.89;100971.30;1900080;75;21545;-64
2022/06/04 08:19:28;;;;;;;6.53;1.98;;;;;;;35.49;35.04;100965.16;1899892;75;21111;-63
2022/06/04 08:21:57;;;;;;;6.60;1.57;;;;;;;35.36;34.81;100962.80;1901485;74;21154;-63
2022/06/04 08:24:26;;;;;;;17.57;2.08;;;;;;;35.36;34.90;100961.43;1905965;75;21491;-64
2022/06/04 08:26:59;;;;;;;7.42;1.80;;;;;;;35.52;35.39;100957.86;1906036;75;21112;-64
2022/06/04 08:29:30;;;;;;;6.12;1.57;;;;;;;35.71;35.11;100944.61;1916260;73;21009;-61
2022/06/04 08:32:00;;;;;;;6.65;1.87;;;;;;;35.80;34.99;100948.43;1951641;73;21061;-63
2022/06/04 08:34:30;;;;;;;8.20;1.87;;;;;;;36.04;35.22;100944.02;1951818;73;21029;-63
2022/06/04 08:36:59;;;;;;;9.00;1.85;;;;;;;36.35;34.97;100944.50;1951901;73;20998;-61
2022/06/04 08:39:29;;;;;;;11.08;1.77;;;;;;;36.36;33.84;100947.56;1951930;73;21474;-59
2022/06/04 08:42:13;;;;;;;4.47;1.52;;;;;;;36.46;33.77;100945.13;1951795;73;21091;-60
2022/06/04 08:44:44;;;;;;;7.33;1.67;;;;;;;36.60;33.39;100939.52;1951822;73;21531;-60
2022/06/04 08:47:19;;;;;;;8.10;1.60;;;;;;;36.66;33.49;100935.86;1935125;73;21435;-60
2022/06/04 08:49:53;;;;;;;8.80;1.77;;;;;;;36.41;33.01;100940.88;1939417;74;21014;-60
2022/06/04 08:52:44;;;;;;;7.45;1.60;;;;;;;36.07;32.91;100933.99;1939262;74;21001;-60
2022/06/04 08:58:15;;;;;;;1.75;1.10;;;;;;;35.59;32.79;100937.29;1939240;74;21087;-60
2022/06/04 09:01:10;;;;;;;4.58;1.50;;;;;;;35.44;32.78;100930.75;1938637;74;21099;-59
2022/06/04 09:03:43;;;;;;;5.08;1.50;;;;;;;35.27;32.98;100941.38;1866505;75;21105;-60
2022/06/04 09:06:30;;;;;;;2.50;1.07;;;;;;;35.50;33.03;100935.34;1866443;77;21092;-60
2022/06/04 09:09:07;;;;;;;4.47;1.27;;;;;;;35.76;32.90;100938.45;1904712;74;21029;-60
2022/06/04 09:11:51;;;;;;;4.90;1.57;;;;;;;35.84;32.54;100934.59;1938913;74;21089;-60
2022/06/04 09:14:38;;;;;;;4.22;1.77;;;;;;;36.21;32.94;100931.98;1939377;74;21029;-58
2022/06/04 09:17:18;;;;;;;2.62;1.10;;;;;;;36.42;32.61;100923.34;1939232;74;21057;-58
2022/06/04 09:19:53;;;;;;;4.70;1.15;;;;;;;36.14;31.81;100915.59;1936962;74;21474;-59
2022/06/04 09:22:24;;;;;;;4.37;1.20;;;;;;;36.00;31.88;100911.29;1939075;74;21146;-59
2022/06/04 09:24:53;;;;;;;4.72;1.40;;;;;;;35.97;31.69;100907.62;1933644;74;21115;-59
2022/06/04 09:27:42;;;;;;;4.12;1.10;;;;;;;36.05;31.95;100901.33;1926983;74;21096;-61
2022/06/04 09:30:14;;;;;;;4.90;1.00;;;;;;;36.03;31.69;100906.20;1914385;74;21103;-60
2022/06/04 09:33:04;;;;;;;6.47;1.02;;;;;;;35.89;31.84;100902.75;1900103;75;21041;-60
2022/06/04 09:35:35;;;;;;;7.33;1.65;;;;;;;35.97;31.72;100901.63;1899888;75;21531;-62
2022/06/04 09:38:04;;;;;;;3.83;1.10;;;;;;;36.14;31.17;100902.72;1899812;75;21119;-60
2022/06/04 09:40:35;;;;;;;1.75;0.95;;;;;;;36.18;30.89;100907.76;1899832;75;21049;-61
2022/06/04 09:43:09;;;;;;;2.33;0.95;;;;;;;36.00;30.25;100899.78;1900024;75;21545;-61
2022/06/04 09:45:38;;;;;;;2.90;0.80;;;;;;;35.81;29.98;100900.28;1908098;74;21131;-60
2022/06/04 09:48:15;;;;;;;2.17;1.10;;;;;;;35.53;29.84;100907.52;1933378;74;21123;-60
2022/06/04 09:50:47;;;;;;;2.35;1.10;;;;;;;35.24;29.50;100897.48;1933358;74;21557;-61
2022/06/04 09:53:21;;;;;;;2.62;1.25;;;;;;;34.90;29.54;100905.00;1933071;74;21629;-61
2022/06/04 09:55:58;;;;;;;7.05;1.50;;;;;;;34.73;29.49;100895.08;1933691;74;21464;-61
2022/06/04 09:58:33;;;;;;;6.47;1.70;;;;;;;34.51;29.64;100897.22;1933515;74;21029;-61
2022/06/04 10:01:08;;;;;;;4.75;1.20;;;;;;;34.40;29.89;100888.31;1933600;74;21488;-61
2022/06/04 10:03:40;;;;;;;3.02;1.17;;;;;;;34.42;30.02;100889.77;1933395;74;21014;-64
2022/06/04 10:06:16;;;;;;;6.17;1.40;;;;;;;34.25;30.07;100891.80;1933667;74;21061;-63
2022/06/04 10:11:52;;;;;;;3.25;0.98;;;;;;;34.03;30.84;100895.59;1933492;74;21026;-63
2022/06/04 10:14:38;;;;;;;7.62;2.98;;;;;;;34.00;31.12;100893.80;1931171;74;21159;-63
2022/06/04 10:17:20;;;;;;;3.70;1.12;;;;;;;33.82;31.46;100886.23;1933490;74;21110;-63
2022/06/04 10:19:56;;;;;;;2.58;1.22;;;;;;;33.59;31.46;100892.09;1933696;74;21110;-63
2022/06/04 10:22:25;;;;;;;2.83;1.10;;;;;;;33.43;31.92;100890.58;1933479;74;21049;-64
2022/06/04 10:24:59;;;;;;;4.42;1.05;;;;;;;33.46;31.73;100884.72;1933722;74;21408;-63
2022/06/04 10:27:39;;;;;;;4.50;1.30;;;;;;;33.46;31.73;100884.72;1933624;74;21021;-63
2022/06/04 10:30:20;;;;;;;3.90;1.25;;;;;;;33.85;33.84;100895.38;1933513;74;21021;-63
2022/06/04 10:33:24;;;;;;;3.95;1.35;;;;;;;33.82;32.82;100885.70;1933597;74;21494;-64
2022/06/04 10:36:13;;;;;;;4.85;1.05;;;;;;;33.82;32.82;100885.70;1933498;74;21099;-64
2022/06/04 10:38:47;;;;;;;6.30;1.12;;;;;;;33.57;32.76;100903.20;1929925;74;21468;-64
2022/06/04 10:41:26;;;;;;;8.80;1.72;;;;;;;33.29;32.74;100895.16;1933387;74;21154;-64
2022/06/04 10:44:06;;;;;;;4.15;1.42;;;;;;;33.07;33.07;100897.16;1932806;74;21034;-63
2022/06/04 10:46:46;;;;;;;8.10;1.47;;;;;;;32.93;33.34;100886.73;1933500;74;21507;-63
2022/06/04 10:49:39;;;;;;;4.42;0.90;;;;;;;32.96;34.00;100887.70;1933529;74;21088;-63
2022/06/04 10:52:37;;;;;;;4.05;1.07;;;;;;;32.99;34.07;100890.00;1933949;74;21487;-64
2022/06/04 10:55:15;;;;;;;4.55;1.27;;;;;;;32.76;34.31;100881.30;1933488;74;21045;-64
2022/06/04 10:57:49;;;;;;;7.62;1.00;;;;;;;32.68;34.63;100879.09;1933410;74;21573;-65
2022/06/04 11:00:27;;;;;;;1.98;1.27;;;;;;;32.54;34.76;100873.22;1932924;74;21539;-64
2022/06/04 11:02:58;;;;;;;4.92;1.80;;;;;;;32.47;35.04;100875.06;1933385;74;21570;-65
2022/06/04 11:05:48;;;;;;;9.65;1.80;;;;;;;32.52;34.94;100871.22;1933234;74;21496;-64
2022/06/04 11:08:25;;;;;;;8.23;1.62;;;;;;;32.51;35.11;100868.98;1932723;74;21146;-64
2022/06/04 11:10:56;;;;;;;1.65;0.95;;;;;;;32.53;35.46;100872.05;1932988;74;21528;-64
2022/06/04 11:13:40;;;;;;;2.25;0.90;;;;;;;32.55;35.64;100863.14;1932856;74;21644;-65
2022/06/04 11:16:11;;;;;;;6.28;1.00;;;;;;;32.44;35.28;100868.64;1933520;74;21099;-65
2022/06/04 11:18:52;;;;;;;4.30;1.47;;;;;;;32.35;35.44;100865.76;1933250;74;21107;-66
2022/06/04 11:21:23;;;;;;;6.62;1.52;;;;;;;32.22;35.52;100865.16;1931536;74;21045;-65
2022/06/04 11:24:29;;;;;;;4.60;1.02;;;;;;;32.07;35.64;100866.09;1934714;74;21049;-65
2022/06/04 11:27:05;;;;;;;12.65;1.90;;;;;;;31.96;35.87;100858.97;1831909;77;21627;-66
2022/06/04 11:29:34;;;;;;;6.00;1.10;;;;;;;31.91;36.19;100859.05;1855987;77;21502;-65
2022/06/04 11:32:08;;;;;;;4.95;1.10;;;;;;;31.80;36.12;100855.52;1894751;74;21025;-65
2022/06/04 11:34:58;;;;;;;4.37;1.20;;;;;;;31.74;36.41;100854.42;1936391;74;21033;-65
2022/06/04 11:37:47;;;;;;;2.37;0.95;;;;;;;31.82;36.50;100848.52;1912271;74;21543;-65
2022/06/04 11:40:18;;;;;;;6.25;1.17;;;;;;;31.84;36.67;100858.16;1903514;75;21094;-65
2022/06/04 11:42:58;;;;;;;6.08;1.20;;;;;;;31.91;36.67;100852.25;1913774;74;21524;-65
2022/06/04 11:45:33;;;;;;;4.03;1.75;;;;;;;32.02;36.84;100854.08;1926663;74;21477;-65
2022/06/04 11:48:16;;;;;;;6.58;1.35;;;;;;;32.07;36.77;100861.17;1926613;74;21124;-65
2022/06/04 11:50:56;;;;;;;8.65;1.20;;;;;;;32.20;36.68;100857.17;1927008;74;21034;-65
2022/06/04 11:53:34;;;;;;;2.77;1.10;;;;;;;32.41;36.50;100855.44;1926844;74;21037;-65
2022/06/04 11:56:08;;;;;;;5.40;1.80;;;;;;;32.55;36.31;100854.44;1926704;74;21077;-65
2022/06/04 11:58:54;;;;;;;3.25;1.57;;;;;;;32.52;35.96;100853.50;1926581;74;21501;-65
2022/06/04 12:01:34;;;;;;;5.40;1.00;;;;;;;32.48;35.87;100848.97;1926882;74;21577;-65
2022/06/04 12:04:09;;;;;;;6.25;1.07;;;;;;;32.51;35.79;100850.44;1924671;74;21104;-65